sensor_id;sensor_type;location;lat;lon;timestamp;P1;durP1;ratioP1;P2;durP2;ratioP2
19113;SDS011;9689;51.052;13.772;2023-09-19T00:02:07;8.95;;;5.50;;
19113;SDS011;9689;51.052;13.772;2023-09-19T00:07:08;9.82;;;5.93;;
19113;SDS011;9689;51.052;13.772;2023-09-19T00:12:10;7.90;;;5.32;;
19113;SDS011;9689;51.052;13.772;2023-09-19T00:17:12;7.05;;;4.95;;
19113;SDS011;9689;51.052;13.772;2023-09-19T00:22:15;8.13;;;5.35;;
19113;SDS011;9689;51.052;13.772;2023-09-19T00:27:19;8.00;;;4.90;;
19113;SDS011;9689;51.052;13.772;2023-09-19T00:32:20;9.00;;;5.32;;
19113;SDS011;9689;51.052;13.772;2023-09-19T00:37:21;8.23;;;5.28;;
19113;SDS011;9689;51.052;13.772;2023-09-19T00:42:23;12.02;;;6.18;;
19113;SDS011;9689;51.052;13.772;2023-09-19T00:47:25;9.88;;;6.22;;
19113;SDS011;9689;51.052;13.772;2023-09-19T00:52:26;10.52;;;6.45;;
19113;SDS011;9689;51.052;13.772;2023-09-19T00:57:28;12.00;;;6.93;;
19113;SDS011;9689;51.052;13.772;2023-09-19T01:02:32;13.23;;;7.35;;
19113;SDS011;9689;51.052;13.772;2023-09-19T01:07:33;13.93;;;7.07;;
19113;SDS011;9689;51.052;13.772;2023-09-19T01:12:36;13.10;;;7.65;;
19113;SDS011;9689;51.052;13.772;2023-09-19T01:17:48;17.13;;;7.55;;
19113;SDS011;9689;51.052;13.772;2023-09-19T01:23:00;10.20;;;7.50;;
19113;SDS011;9689;51.052;13.772;2023-09-19T01:28:14;13.00;;;7.57;;
19113;SDS011;9689;51.052;13.772;2023-09-19T01:39:01;12.52;;;7.97;;
19113;SDS011;9689;51.052;13.772;2023-09-19T01:44:11;16.17;;;8.38;;
19113;SDS011;9689;51.052;13.772;2023-09-19T01:49:22;15.05;;;8.02;;
19113;SDS011;9689;51.052;13.772;2023-09-19T01:54:32;11.02;;;7.80;;
19113;SDS011;9689;51.052;13.772;2023-09-19T01:59:43;13.15;;;8.20;;
19113;SDS011;9689;51.052;13.772;2023-09-19T02:04:49;13.77;;;8.52;;
19113;SDS011;9689;51.052;13.772;2023-09-19T02:09:51;12.68;;;7.75;;
19113;SDS011;9689;51.052;13.772;2023-09-19T02:14:52;14.95;;;8.07;;
19113;SDS011;9689;51.052;13.772;2023-09-19T02:19:53;14.45;;;8.23;;
19113;SDS011;9689;51.052;13.772;2023-09-19T02:24:55;11.48;;;7.55;;
19113;SDS011;9689;51.052;13.772;2023-09-19T02:29:58;11.10;;;7.97;;
19113;SDS011;9689;51.052;13.772;2023-09-19T02:35:01;13.60;;;7.85;;
19113;SDS011;9689;51.052;13.772;2023-09-19T02:40:07;16.40;;;7.72;;
19113;SDS011;9689;51.052;13.772;2023-09-19T02:45:18;18.17;;;7.93;;
19113;SDS011;9689;51.052;13.772;2023-09-19T02:50:19;12.85;;;7.32;;
19113;SDS011;9689;51.052;13.772;2023-09-19T02:55:22;11.27;;;6.35;;
19113;SDS011;9689;51.052;13.772;2023-09-19T03:00:23;11.07;;;6.68;;
19113;SDS011;9689;51.052;13.772;2023-09-19T03:05:24;12.30;;;6.32;;
19113;SDS011;9689;51.052;13.772;2023-09-19T03:10:27;10.73;;;6.38;;
19113;SDS011;9689;51.052;13.772;2023-09-19T03:15:30;8.57;;;6.03;;
19113;SDS011;9689;51.052;13.772;2023-09-19T03:20:31;9.95;;;4.85;;
19113;SDS011;9689;51.052;13.772;2023-09-19T03:25:35;6.63;;;3.10;;
19113;SDS011;9689;51.052;13.772;2023-09-19T03:30:36;6.80;;;2.88;;
19113;SDS011;9689;51.052;13.772;2023-09-19T03:35:39;6.85;;;2.63;;
19113;SDS011;9689;51.052;13.772;2023-09-19T03:40:42;5.55;;;1.40;;
19113;SDS011;9689;51.052;13.772;2023-09-19T03:45:44;3.63;;;2.25;;
19113;SDS011;9689;51.052;13.772;2023-09-19T03:50:46;3.90;;;2.13;;
19113;SDS011;9689;51.052;13.772;2023-09-19T03:55:48;3.15;;;1.63;;
19113;SDS011;9689;51.052;13.772;2023-09-19T04:00:50;2.60;;;1.67;;
19113;SDS011;9689;51.052;13.772;2023-09-19T04:05:55;2.38;;;1.58;;
19113;SDS011;9689;51.052;13.772;2023-09-19T04:10:57;3.75;;;1.70;;
19113;SDS011;9689;51.052;13.772;2023-09-19T04:15:58;5.28;;;1.50;;
19113;SDS011;9689;51.052;13.772;2023-09-19T04:20:59;2.95;;;1.38;;
19113;SDS011;9689;51.052;13.772;2023-09-19T04:26:03;2.60;;;1.40;;
19113;SDS011;9689;51.052;13.772;2023-09-19T04:31:06;2.58;;;1.20;;
19113;SDS011;9689;51.052;13.772;2023-09-19T04:36:09;3.85;;;1.60;;
19113;SDS011;9689;51.052;13.772;2023-09-19T04:41:34;4.10;;;1.55;;
19113;SDS011;9689;51.052;13.772;2023-09-19T04:46:36;5.18;;;1.20;;
19113;SDS011;9689;51.052;13.772;2023-09-19T04:51:37;2.15;;;1.15;;
19113;SDS011;9689;51.052;13.772;2023-09-19T04:56:39;13.05;;;1.63;;
19113;SDS011;9689;51.052;13.772;2023-09-19T05:01:40;2.78;;;1.40;;
19113;SDS011;9689;51.052;13.772;2023-09-19T05:06:41;4.32;;;1.40;;
19113;SDS011;9689;51.052;13.772;2023-09-19T05:11:46;3.63;;;1.38;;
19113;SDS011;9689;51.052;13.772;2023-09-19T05:16:47;3.40;;;1.23;;
19113;SDS011;9689;51.052;13.772;2023-09-19T05:21:48;4.78;;;1.40;;
19113;SDS011;9689;51.052;13.772;2023-09-19T05:26:50;5.30;;;1.60;;
19113;SDS011;9689;51.052;13.772;2023-09-19T05:31:51;7.03;;;1.80;;
19113;SDS011;9689;51.052;13.772;2023-09-19T05:36:54;2.30;;;1.20;;
19113;SDS011;9689;51.052;13.772;2023-09-19T05:41:56;5.10;;;1.50;;
19113;SDS011;9689;51.052;13.772;2023-09-19T05:46:57;5.60;;;1.20;;
19113;SDS011;9689;51.052;13.772;2023-09-19T05:51:58;4.72;;;1.10;;
19113;SDS011;9689;51.052;13.772;2023-09-19T05:57:02;3.13;;;1.38;;
19113;SDS011;9689;51.052;13.772;2023-09-19T06:02:03;1.33;;;1.00;;
19113;SDS011;9689;51.052;13.772;2023-09-19T06:07:05;1.25;;;0.93;;
19113;SDS011;9689;51.052;13.772;2023-09-19T06:12:08;2.60;;;1.35;;
19113;SDS011;9689;51.052;13.772;2023-09-19T06:17:09;2.35;;;1.30;;
19113;SDS011;9689;51.052;13.772;2023-09-19T06:22:10;4.30;;;1.38;;
19113;SDS011;9689;51.052;13.772;2023-09-19T06:27:12;4.40;;;1.60;;
19113;SDS011;9689;51.052;13.772;2023-09-19T06:32:13;2.28;;;1.02;;
19113;SDS011;9689;51.052;13.772;2023-09-19T06:37:14;4.15;;;1.45;;
19113;SDS011;9689;51.052;13.772;2023-09-19T06:42:17;4.82;;;1.23;;
19113;SDS011;9689;51.052;13.772;2023-09-19T06:47:20;2.83;;;1.13;;
19113;SDS011;9689;51.052;13.772;2023-09-19T06:52:21;3.67;;;1.20;;
19113;SDS011;9689;51.052;13.772;2023-09-19T06:57:26;4.45;;;1.40;;
19113;SDS011;9689;51.052;13.772;2023-09-19T07:02:27;2.97;;;1.33;;
19113;SDS011;9689;51.052;13.772;2023-09-19T07:07:28;5.03;;;1.20;;
19113;SDS011;9689;51.052;13.772;2023-09-19T07:12:30;2.58;;;1.35;;
19113;SDS011;9689;51.052;13.772;2023-09-19T07:17:32;6.20;;;1.20;;
19113;SDS011;9689;51.052;13.772;2023-09-19T07:22:33;4.22;;;1.42;;
19113;SDS011;9689;51.052;13.772;2023-09-19T07:27:35;6.30;;;0.98;;
19113;SDS011;9689;51.052;13.772;2023-09-19T07:32:36;2.83;;;1.30;;
19113;SDS011;9689;51.052;13.772;2023-09-19T07:37:37;2.28;;;1.33;;
19113;SDS011;9689;51.052;13.772;2023-09-19T07:42:39;1.85;;;0.90;;
19113;SDS011;9689;51.052;13.772;2023-09-19T07:47:43;2.75;;;0.85;;
19113;SDS011;9689;51.052;13.772;2023-09-19T07:52:44;2.50;;;1.23;;
19113;SDS011;9689;51.052;13.772;2023-09-19T07:57:47;3.17;;;0.80;;
19113;SDS011;9689;51.052;13.772;2023-09-19T08:02:48;2.25;;;0.80;;
19113;SDS011;9689;51.052;13.772;2023-09-19T08:07:59;3.63;;;1.00;;
19113;SDS011;9689;51.052;13.772;2023-09-19T08:13:02;4.28;;;0.77;;
19113;SDS011;9689;51.052;13.772;2023-09-19T08:18:05;3.63;;;1.05;;
19113;SDS011;9689;51.052;13.772;2023-09-19T08:23:07;5.82;;;0.95;;
19113;SDS011;9689;51.052;13.772;2023-09-19T08:28:09;4.43;;;1.13;;
19113;SDS011;9689;51.052;13.772;2023-09-19T08:33:16;1.75;;;0.73;;
19113;SDS011;9689;51.052;13.772;2023-09-19T08:38:18;1.60;;;0.98;;
19113;SDS011;9689;51.052;13.772;2023-09-19T08:43:22;3.78;;;1.08;;
19113;SDS011;9689;51.052;13.772;2023-09-19T08:48:23;4.95;;;1.83;;
19113;SDS011;9689;51.052;13.772;2023-09-19T08:53:31;2.63;;;1.02;;
19113;SDS011;9689;51.052;13.772;2023-09-19T08:58:43;2.35;;;1.30;;
19113;SDS011;9689;51.052;13.772;2023-09-19T09:03:47;1.30;;;0.93;;
19113;SDS011;9689;51.052;13.772;2023-09-19T09:08:50;2.58;;;1.00;;
19113;SDS011;9689;51.052;13.772;2023-09-19T09:13:52;4.03;;;1.30;;
19113;SDS011;9689;51.052;13.772;2023-09-19T09:18:53;1.85;;;1.05;;
19113;SDS011;9689;51.052;13.772;2023-09-19T09:23:57;1.80;;;1.00;;
19113;SDS011;9689;51.052;13.772;2023-09-19T09:29:00;1.80;;;1.25;;
19113;SDS011;9689;51.052;13.772;2023-09-19T09:34:02;3.08;;;1.10;;
19113;SDS011;9689;51.052;13.772;2023-09-19T09:39:03;3.25;;;1.10;;
19113;SDS011;9689;51.052;13.772;2023-09-19T09:44:17;2.55;;;1.10;;
19113;SDS011;9689;51.052;13.772;2023-09-19T09:49:22;1.80;;;0.90;;
19113;SDS011;9689;51.052;13.772;2023-09-19T09:54:27;4.65;;;1.77;;
19113;SDS011;9689;51.052;13.772;2023-09-19T09:59:47;5.60;;;1.63;;
19113;SDS011;9689;51.052;13.772;2023-09-19T10:04:54;7.40;;;1.77;;
19113;SDS011;9689;51.052;13.772;2023-09-19T10:10:08;5.63;;;1.83;;
19113;SDS011;9689;51.052;13.772;2023-09-19T10:15:17;6.38;;;1.27;;
19113;SDS011;9689;51.052;13.772;2023-09-19T10:20:20;3.47;;;0.90;;
19113;SDS011;9689;51.052;13.772;2023-09-19T10:25:36;4.20;;;0.90;;
19113;SDS011;9689;51.052;13.772;2023-09-19T10:30:40;1.98;;;1.08;;
19113;SDS011;9689;51.052;13.772;2023-09-19T10:35:43;1.73;;;1.00;;
19113;SDS011;9689;51.052;13.772;2023-09-19T10:40:48;2.47;;;0.80;;
19113;SDS011;9689;51.052;13.772;2023-09-19T10:45:52;4.75;;;1.35;;
19113;SDS011;9689;51.052;13.772;2023-09-19T10:50:57;2.63;;;0.98;;
19113;SDS011;9689;51.052;13.772;2023-09-19T10:56:04;1.02;;;0.65;;
19113;SDS011;9689;51.052;13.772;2023-09-19T11:01:11;1.98;;;1.00;;
19113;SDS011;9689;51.052;13.772;2023-09-19T11:06:14;4.00;;;1.33;;
19113;SDS011;9689;51.052;13.772;2023-09-19T11:22:20;2.78;;;1.30;;
19113;SDS011;9689;51.052;13.772;2023-09-19T11:27:21;2.42;;;1.00;;
19113;SDS011;9689;51.052;13.772;2023-09-19T11:38:02;9.48;;;2.50;;
19113;SDS011;9689;51.052;13.772;2023-09-19T11:43:30;2.47;;;1.27;;
19113;SDS011;9689;51.052;13.772;2023-09-19T11:48:34;6.22;;;2.05;;
19113;SDS011;9689;51.052;13.772;2023-09-19T11:53:39;9.25;;;1.98;;
19113;SDS011;9689;51.052;13.772;2023-09-19T11:58:42;3.00;;;1.15;;
19113;SDS011;9689;51.052;13.772;2023-09-19T12:03:45;3.00;;;1.08;;
19113;SDS011;9689;51.052;13.772;2023-09-19T12:08:49;4.30;;;1.60;;
19113;SDS011;9689;51.052;13.772;2023-09-19T12:13:50;2.45;;;1.23;;
19113;SDS011;9689;51.052;13.772;2023-09-19T12:18:53;5.30;;;1.40;;
19113;SDS011;9689;51.052;13.772;2023-09-19T12:24:06;3.90;;;1.20;;
19113;SDS011;9689;51.052;13.772;2023-09-19T12:29:13;2.13;;;1.00;;
19113;SDS011;9689;51.052;13.772;2023-09-19T12:34:19;6.68;;;1.77;;
19113;SDS011;9689;51.052;13.772;2023-09-19T12:39:25;2.20;;;1.20;;
19113;SDS011;9689;51.052;13.772;2023-09-19T12:44:26;5.05;;;1.05;;
19113;SDS011;9689;51.052;13.772;2023-09-19T12:49:27;3.75;;;1.10;;
19113;SDS011;9689;51.052;13.772;2023-09-19T12:54:38;6.85;;;1.42;;
19113;SDS011;9689;51.052;13.772;2023-09-19T12:59:39;4.78;;;1.00;;
19113;SDS011;9689;51.052;13.772;2023-09-19T13:04:41;2.72;;;1.17;;
19113;SDS011;9689;51.052;13.772;2023-09-19T13:10:03;2.20;;;1.30;;
19113;SDS011;9689;51.052;13.772;2023-09-19T13:15:07;2.88;;;1.20;;
19113;SDS011;9689;51.052;13.772;2023-09-19T13:20:20;3.20;;;1.00;;
19113;SDS011;9689;51.052;13.772;2023-09-19T13:25:28;2.20;;;1.20;;
19113;SDS011;9689;51.052;13.772;2023-09-19T13:30:29;4.68;;;1.33;;
19113;SDS011;9689;51.052;13.772;2023-09-19T13:35:31;10.65;;;3.17;;
19113;SDS011;9689;51.052;13.772;2023-09-19T13:40:33;6.10;;;2.60;;
19113;SDS011;9689;51.052;13.772;2023-09-19T13:45:34;5.07;;;1.33;;
19113;SDS011;9689;51.052;13.772;2023-09-19T13:50:37;2.90;;;1.60;;
19113;SDS011;9689;51.052;13.772;2023-09-19T13:55:43;5.88;;;1.38;;
19113;SDS011;9689;51.052;13.772;2023-09-19T14:00:44;2.83;;;1.20;;
19113;SDS011;9689;51.052;13.772;2023-09-19T14:05:45;2.45;;;1.27;;
19113;SDS011;9689;51.052;13.772;2023-09-19T14:10:47;5.10;;;1.35;;
19113;SDS011;9689;51.052;13.772;2023-09-19T14:15:48;2.38;;;1.02;;
19113;SDS011;9689;51.052;13.772;2023-09-19T14:20:49;6.68;;;1.40;;
19113;SDS011;9689;51.052;13.772;2023-09-19T14:25:53;5.72;;;2.22;;
19113;SDS011;9689;51.052;13.772;2023-09-19T14:30:54;5.15;;;1.90;;
19113;SDS011;9689;51.052;13.772;2023-09-19T14:35:55;2.40;;;1.23;;
19113;SDS011;9689;51.052;13.772;2023-09-19T14:41:01;5.32;;;1.65;;
19113;SDS011;9689;51.052;13.772;2023-09-19T14:46:02;4.53;;;1.80;;
19113;SDS011;9689;51.052;13.772;2023-09-19T14:51:04;2.75;;;1.52;;
19113;SDS011;9689;51.052;13.772;2023-09-19T14:56:09;3.53;;;1.85;;
19113;SDS011;9689;51.052;13.772;2023-09-19T15:01:13;5.28;;;1.48;;
19113;SDS011;9689;51.052;13.772;2023-09-19T15:06:14;3.40;;;1.85;;
19113;SDS011;9689;51.052;13.772;2023-09-19T15:11:17;3.45;;;1.75;;
19113;SDS011;9689;51.052;13.772;2023-09-19T15:16:19;2.15;;;1.67;;
19113;SDS011;9689;51.052;13.772;2023-09-19T15:21:21;3.72;;;2.10;;
19113;SDS011;9689;51.052;13.772;2023-09-19T15:26:25;4.13;;;1.85;;
19113;SDS011;9689;51.052;13.772;2023-09-19T15:31:26;3.08;;;1.75;;
19113;SDS011;9689;51.052;13.772;2023-09-19T15:36:27;2.65;;;1.50;;
19113;SDS011;9689;51.052;13.772;2023-09-19T15:41:29;3.38;;;1.75;;
19113;SDS011;9689;51.052;13.772;2023-09-19T15:46:32;7.10;;;2.00;;
19113;SDS011;9689;51.052;13.772;2023-09-19T15:51:35;3.45;;;1.80;;
19113;SDS011;9689;51.052;13.772;2023-09-19T15:56:37;5.55;;;1.63;;
19113;SDS011;9689;51.052;13.772;2023-09-19T16:01:41;3.67;;;1.70;;
19113;SDS011;9689;51.052;13.772;2023-09-19T16:06:43;6.75;;;1.80;;
19113;SDS011;9689;51.052;13.772;2023-09-19T16:11:46;4.35;;;1.90;;
19113;SDS011;9689;51.052;13.772;2023-09-19T16:16:48;7.00;;;1.88;;
19113;SDS011;9689;51.052;13.772;2023-09-19T16:21:50;3.45;;;1.98;;
19113;SDS011;9689;51.052;13.772;2023-09-19T16:26:52;4.70;;;1.80;;
19113;SDS011;9689;51.052;13.772;2023-09-19T16:31:53;3.70;;;1.92;;
19113;SDS011;9689;51.052;13.772;2023-09-19T16:36:54;7.13;;;2.25;;
19113;SDS011;9689;51.052;13.772;2023-09-19T16:41:57;4.65;;;1.75;;
19113;SDS011;9689;51.052;13.772;2023-09-19T16:47:10;6.68;;;2.20;;
19113;SDS011;9689;51.052;13.772;2023-09-19T16:52:11;4.93;;;2.30;;
19113;SDS011;9689;51.052;13.772;2023-09-19T16:57:13;5.47;;;2.00;;
19113;SDS011;9689;51.052;13.772;2023-09-19T17:02:14;6.95;;;2.50;;
19113;SDS011;9689;51.052;13.772;2023-09-19T17:07:15;6.05;;;2.38;;
19113;SDS011;9689;51.052;13.772;2023-09-19T17:12:17;4.28;;;2.20;;
19113;SDS011;9689;51.052;13.772;2023-09-19T17:17:18;4.60;;;2.30;;
19113;SDS011;9689;51.052;13.772;2023-09-19T17:22:19;7.50;;;1.98;;
19113;SDS011;9689;51.052;13.772;2023-09-19T17:27:21;5.70;;;2.10;;
19113;SDS011;9689;51.052;13.772;2023-09-19T17:32:21;5.35;;;2.33;;
19113;SDS011;9689;51.052;13.772;2023-09-19T17:37:22;6.45;;;2.65;;
19113;SDS011;9689;51.052;13.772;2023-09-19T17:42:24;4.13;;;2.58;;
19113;SDS011;9689;51.052;13.772;2023-09-19T17:47:25;6.07;;;2.70;;
19113;SDS011;9689;51.052;13.772;2023-09-19T17:52:26;7.22;;;2.38;;
19113;SDS011;9689;51.052;13.772;2023-09-19T17:57:29;9.63;;;2.67;;
19113;SDS011;9689;51.052;13.772;2023-09-19T18:02:30;5.75;;;2.17;;
19113;SDS011;9689;51.052;13.772;2023-09-19T18:07:32;3.35;;;1.85;;
19113;SDS011;9689;51.052;13.772;2023-09-19T18:12:34;6.18;;;2.58;;
19113;SDS011;9689;51.052;13.772;2023-09-19T18:17:36;7.20;;;2.55;;
19113;SDS011;9689;51.052;13.772;2023-09-19T18:22:37;6.55;;;2.20;;
19113;SDS011;9689;51.052;13.772;2023-09-19T18:27:39;5.88;;;2.30;;
19113;SDS011;9689;51.052;13.772;2023-09-19T18:32:40;4.82;;;2.28;;
19113;SDS011;9689;51.052;13.772;2023-09-19T18:37:41;7.20;;;2.58;;
19113;SDS011;9689;51.052;13.772;2023-09-19T18:42:43;11.18;;;5.28;;
19113;SDS011;9689;51.052;13.772;2023-09-19T18:47:44;8.93;;;4.20;;
19113;SDS011;9689;51.052;13.772;2023-09-19T18:52:46;16.30;;;6.35;;
19113;SDS011;9689;51.052;13.772;2023-09-19T18:57:48;6.70;;;3.10;;
19113;SDS011;9689;51.052;13.772;2023-09-19T19:02:51;4.30;;;2.50;;
19113;SDS011;9689;51.052;13.772;2023-09-19T19:07:53;4.60;;;2.45;;
19113;SDS011;9689;51.052;13.772;2023-09-19T19:12:59;6.50;;;2.58;;
19113;SDS011;9689;51.052;13.772;2023-09-19T19:18:00;5.55;;;2.67;;
19113;SDS011;9689;51.052;13.772;2023-09-19T19:23:02;4.95;;;2.40;;
19113;SDS011;9689;51.052;13.772;2023-09-19T19:28:05;11.93;;;2.65;;
19113;SDS011;9689;51.052;13.772;2023-09-19T19:33:06;4.95;;;2.78;;
19113;SDS011;9689;51.052;13.772;2023-09-19T19:38:07;4.93;;;2.85;;
19113;SDS011;9689;51.052;13.772;2023-09-19T19:43:09;8.25;;;3.28;;
19113;SDS011;9689;51.052;13.772;2023-09-19T19:48:10;12.98;;;2.83;;
19113;SDS011;9689;51.052;13.772;2023-09-19T19:53:12;8.30;;;3.35;;
19113;SDS011;9689;51.052;13.772;2023-09-19T19:58:15;4.18;;;2.53;;
19113;SDS011;9689;51.052;13.772;2023-09-19T20:03:15;6.43;;;2.97;;
19113;SDS011;9689;51.052;13.772;2023-09-19T20:08:17;12.05;;;2.85;;
19113;SDS011;9689;51.052;13.772;2023-09-19T20:13:20;6.65;;;2.78;;
19113;SDS011;9689;51.052;13.772;2023-09-19T20:18:21;7.57;;;3.35;;
19113;SDS011;9689;51.052;13.772;2023-09-19T20:23:22;10.77;;;3.40;;
19113;SDS011;9689;51.052;13.772;2023-09-19T20:28:25;8.95;;;3.40;;
19113;SDS011;9689;51.052;13.772;2023-09-19T20:33:26;6.05;;;2.90;;
19113;SDS011;9689;51.052;13.772;2023-09-19T20:38:27;8.45;;;3.40;;
19113;SDS011;9689;51.052;13.772;2023-09-19T20:43:30;6.63;;;3.50;;
19113;SDS011;9689;51.052;13.772;2023-09-19T20:48:32;8.50;;;3.25;;
19113;SDS011;9689;51.052;13.772;2023-09-19T20:53:34;8.45;;;3.20;;
19113;SDS011;9689;51.052;13.772;2023-09-19T20:58:38;9.40;;;3.70;;
19113;SDS011;9689;51.052;13.772;2023-09-19T21:03:39;7.30;;;3.78;;
19113;SDS011;9689;51.052;13.772;2023-09-19T21:08:43;9.10;;;3.47;;
19113;SDS011;9689;51.052;13.772;2023-09-19T21:13:46;9.07;;;3.38;;
19113;SDS011;9689;51.052;13.772;2023-09-19T21:18:49;8.50;;;3.03;;
19113;SDS011;9689;51.052;13.772;2023-09-19T21:23:50;8.60;;;3.35;;
19113;SDS011;9689;51.052;13.772;2023-09-19T21:28:53;8.18;;;3.08;;
19113;SDS011;9689;51.052;13.772;2023-09-19T21:33:54;10.90;;;3.20;;
19113;SDS011;9689;51.052;13.772;2023-09-19T21:38:55;6.32;;;3.45;;
19113;SDS011;9689;51.052;13.772;2023-09-19T21:44:00;7.43;;;3.67;;
19113;SDS011;9689;51.052;13.772;2023-09-19T21:49:00;9.10;;;3.05;;
19113;SDS011;9689;51.052;13.772;2023-09-19T21:54:04;10.70;;;3.67;;
19113;SDS011;9689;51.052;13.772;2023-09-19T21:59:06;9.25;;;3.47;;
19113;SDS011;9689;51.052;13.772;2023-09-19T22:04:07;15.73;;;3.85;;
19113;SDS011;9689;51.052;13.772;2023-09-19T22:09:09;7.47;;;3.47;;
19113;SDS011;9689;51.052;13.772;2023-09-19T22:14:11;7.40;;;3.45;;
19113;SDS011;9689;51.052;13.772;2023-09-19T22:19:12;9.50;;;3.45;;
19113;SDS011;9689;51.052;13.772;2023-09-19T22:24:15;9.35;;;3.83;;
19113;SDS011;9689;51.052;13.772;2023-09-19T22:29:21;6.28;;;3.50;;
19113;SDS011;9689;51.052;13.772;2023-09-19T22:34:22;11.35;;;3.75;;
19113;SDS011;9689;51.052;13.772;2023-09-19T22:39:23;8.25;;;3.25;;
19113;SDS011;9689;51.052;13.772;2023-09-19T22:44:26;14.38;;;3.70;;
19113;SDS011;9689;51.052;13.772;2023-09-19T22:49:27;9.55;;;3.35;;
19113;SDS011;9689;51.052;13.772;2023-09-19T22:54:31;7.55;;;4.07;;
19113;SDS011;9689;51.052;13.772;2023-09-19T22:59:37;8.23;;;3.15;;
19113;SDS011;9689;51.052;13.772;2023-09-19T23:04:40;20.63;;;3.22;;
19113;SDS011;9689;51.052;13.772;2023-09-19T23:09:41;6.68;;;2.75;;
19113;SDS011;9689;51.052;13.772;2023-09-19T23:14:43;5.03;;;2.80;;
19113;SDS011;9689;51.052;13.772;2023-09-19T23:19:44;4.05;;;2.72;;
19113;SDS011;9689;51.052;13.772;2023-09-19T23:24:48;7.90;;;2.50;;
19113;SDS011;9689;51.052;13.772;2023-09-19T23:29:59;7.93;;;2.90;;
19113;SDS011;9689;51.052;13.772;2023-09-19T23:35:00;5.97;;;2.33;;
19113;SDS011;9689;51.052;13.772;2023-09-19T23:40:02;4.63;;;2.67;;
19113;SDS011;9689;51.052;13.772;2023-09-19T23:45:11;5.05;;;2.67;;
19113;SDS011;9689;51.052;13.772;2023-09-19T23:50:12;6.00;;;2.47;;
19113;SDS011;9689;51.052;13.772;2023-09-19T23:55:16;6.22;;;2.67;;
